sensor_id;sensor_type;location;lat;lon;timestamp;temperature;humidity
53410;DHT22;66590;50.734;4.246;2023-06-10T00:00:07;22.60;80.70
53410;DHT22;66590;50.734;4.246;2023-06-10T00:02:34;22.50;80.80
53410;DHT22;66590;50.734;4.246;2023-06-10T00:05:01;22.60;80.80
53410;DHT22;66590;50.734;4.246;2023-06-10T00:07:29;22.50;81.20
53410;DHT22;66590;50.734;4.246;2023-06-10T00:09:56;22.40;81.40
53410;DHT22;66590;50.734;4.246;2023-06-10T00:12:23;22.40;81.40
53410;DHT22;66590;50.734;4.246;2023-06-10T00:14:50;22.40;81.40
53410;DHT22;66590;50.734;4.246;2023-06-10T00:17:17;22.40;81.90
53410;DHT22;66590;50.734;4.246;2023-06-10T00:19:44;22.30;81.70
53410;DHT22;66590;50.734;4.246;2023-06-10T00:22:11;22.20;82.30
53410;DHT22;66590;50.734;4.246;2023-06-10T00:24:40;22.30;82.20
53410;DHT22;66590;50.734;4.246;2023-06-10T00:27:07;22.20;82.40
53410;DHT22;66590;50.734;4.246;2023-06-10T00:29:34;22.20;82.60
53410;DHT22;66590;50.734;4.246;2023-06-10T00:32:01;22.10;82.60
53410;DHT22;66590;50.734;4.246;2023-06-10T00:34:29;22.10;82.80
53410;DHT22;66590;50.734;4.246;2023-06-10T00:36:56;22.10;82.50
53410;DHT22;66590;50.734;4.246;2023-06-10T00:39:23;22.10;83.10
53410;DHT22;66590;50.734;4.246;2023-06-10T00:41:51;22.00;83.20
53410;DHT22;66590;50.734;4.246;2023-06-10T00:44:18;21.90;83.60
53410;DHT22;66590;50.734;4.246;2023-06-10T00:46:45;21.80;84.20
53410;DHT22;66590;50.734;4.246;2023-06-10T00:49:12;21.80;83.80
53410;DHT22;66590;50.734;4.246;2023-06-10T00:51:40;21.80;84.10
53410;DHT22;66590;50.734;4.246;2023-06-10T00:54:07;21.90;85.10
53410;DHT22;66590;50.734;4.246;2023-06-10T00:56:35;21.80;84.10
53410;DHT22;66590;50.734;4.246;2023-06-10T00:59:04;21.80;84.30
53410;DHT22;66590;50.734;4.246;2023-06-10T01:01:31;21.80;84.50
53410;DHT22;66590;50.734;4.246;2023-06-10T01:03:58;21.70;84.60
53410;DHT22;66590;50.734;4.246;2023-06-10T01:06:30;21.70;84.80
53410;DHT22;66590;50.734;4.246;2023-06-10T01:09:06;21.70;84.80
53410;DHT22;66590;50.734;4.246;2023-06-10T01:11:43;21.70;85.00
53410;DHT22;66590;50.734;4.246;2023-06-10T01:14:14;21.60;85.30
53410;DHT22;66590;50.734;4.246;2023-06-10T01:16:41;21.60;85.30
53410;DHT22;66590;50.734;4.246;2023-06-10T01:19:08;21.50;85.50
53410;DHT22;66590;50.734;4.246;2023-06-10T01:21:38;21.50;85.70
53410;DHT22;66590;50.734;4.246;2023-06-10T01:24:05;21.50;85.80
53410;DHT22;66590;50.734;4.246;2023-06-10T01:26:34;21.50;85.60
53410;DHT22;66590;50.734;4.246;2023-06-10T01:29:06;21.50;85.70
53410;DHT22;66590;50.734;4.246;2023-06-10T01:31:41;21.50;85.70
53410;DHT22;66590;50.734;4.246;2023-06-10T01:34:09;21.50;85.30
53410;DHT22;66590;50.734;4.246;2023-06-10T01:36:40;21.50;85.40
53410;DHT22;66590;50.734;4.246;2023-06-10T01:39:08;21.50;85.20
53410;DHT22;66590;50.734;4.246;2023-06-10T01:41:37;21.50;85.30
53410;DHT22;66590;50.734;4.246;2023-06-10T01:44:05;21.50;85.50
53410;DHT22;66590;50.734;4.246;2023-06-10T01:46:32;21.40;85.80
53410;DHT22;66590;50.734;4.246;2023-06-10T01:48:59;21.40;85.70
53410;DHT22;66590;50.734;4.246;2023-06-10T01:51:26;21.30;85.80
53410;DHT22;66590;50.734;4.246;2023-06-10T01:53:54;21.30;85.90
53410;DHT22;66590;50.734;4.246;2023-06-10T01:56:21;21.30;85.80
53410;DHT22;66590;50.734;4.246;2023-06-10T01:58:48;21.30;86.10
53410;DHT22;66590;50.734;4.246;2023-06-10T02:01:15;21.20;86.40
53410;DHT22;66590;50.734;4.246;2023-06-10T02:03:42;21.20;86.40
53410;DHT22;66590;50.734;4.246;2023-06-10T02:06:09;21.30;86.40
53410;DHT22;66590;50.734;4.246;2023-06-10T02:08:36;21.20;86.50
53410;DHT22;66590;50.734;4.246;2023-06-10T02:11:05;21.20;86.80
53410;DHT22;66590;50.734;4.246;2023-06-10T02:13:31;21.20;86.50
53410;DHT22;66590;50.734;4.246;2023-06-10T02:15:58;21.20;86.40
53410;DHT22;66590;50.734;4.246;2023-06-10T02:18:25;21.10;86.80
53410;DHT22;66590;50.734;4.246;2023-06-10T02:20:52;21.10;86.90
53410;DHT22;66590;50.734;4.246;2023-06-10T02:23:19;21.10;87.10
53410;DHT22;66590;50.734;4.246;2023-06-10T02:25:46;21.00;87.20
53410;DHT22;66590;50.734;4.246;2023-06-10T02:28:15;21.00;87.20
53410;DHT22;66590;50.734;4.246;2023-06-10T02:30:42;20.90;87.50
53410;DHT22;66590;50.734;4.246;2023-06-10T02:33:09;20.90;87.50
53410;DHT22;66590;50.734;4.246;2023-06-10T02:35:37;20.80;87.60
53410;DHT22;66590;50.734;4.246;2023-06-10T02:38:04;20.80;87.80
53410;DHT22;66590;50.734;4.246;2023-06-10T02:40:31;20.80;87.70
53410;DHT22;66590;50.734;4.246;2023-06-10T02:42:58;20.80;87.80
53410;DHT22;66590;50.734;4.246;2023-06-10T02:45:26;20.70;88.10
53410;DHT22;66590;50.734;4.246;2023-06-10T02:47:53;20.80;88.10
53410;DHT22;66590;50.734;4.246;2023-06-10T02:50:21;20.80;87.90
53410;DHT22;66590;50.734;4.246;2023-06-10T02:52:48;20.70;88.10
53410;DHT22;66590;50.734;4.246;2023-06-10T02:55:15;20.70;88.10
53410;DHT22;66590;50.734;4.246;2023-06-10T02:57:42;20.60;88.40
53410;DHT22;66590;50.734;4.246;2023-06-10T03:00:10;20.60;88.70
53410;DHT22;66590;50.734;4.246;2023-06-10T03:02:39;20.60;88.60
53410;DHT22;66590;50.734;4.246;2023-06-10T03:05:06;20.70;88.10
53410;DHT22;66590;50.734;4.246;2023-06-10T03:07:34;20.70;88.20
53410;DHT22;66590;50.734;4.246;2023-06-10T03:10:01;20.60;88.60
53410;DHT22;66590;50.734;4.246;2023-06-10T03:12:28;20.50;88.60
53410;DHT22;66590;50.734;4.246;2023-06-10T03:14:56;20.50;89.00
53410;DHT22;66590;50.734;4.246;2023-06-10T03:17:23;20.50;89.00
53410;DHT22;66590;50.734;4.246;2023-06-10T03:19:51;20.40;89.10
53410;DHT22;66590;50.734;4.246;2023-06-10T03:22:18;20.40;89.20
53410;DHT22;66590;50.734;4.246;2023-06-10T03:24:45;20.40;89.50
53410;DHT22;66590;50.734;4.246;2023-06-10T03:27:12;20.40;89.50
53410;DHT22;66590;50.734;4.246;2023-06-10T03:29:39;20.40;89.50
53410;DHT22;66590;50.734;4.246;2023-06-10T03:32:07;20.40;89.50
53410;DHT22;66590;50.734;4.246;2023-06-10T03:34:34;20.50;89.30
53410;DHT22;66590;50.734;4.246;2023-06-10T03:37:02;20.50;89.20
53410;DHT22;66590;50.734;4.246;2023-06-10T03:39:29;20.60;89.30
53410;DHT22;66590;50.734;4.246;2023-06-10T03:41:56;20.40;89.60
53410;DHT22;66590;50.734;4.246;2023-06-10T03:44:24;20.30;90.10
53410;DHT22;66590;50.734;4.246;2023-06-10T03:46:51;20.30;90.10
53410;DHT22;66590;50.734;4.246;2023-06-10T03:49:18;20.20;90.20
53410;DHT22;66590;50.734;4.246;2023-06-10T03:51:45;20.20;90.40
53410;DHT22;66590;50.734;4.246;2023-06-10T03:54:13;20.20;90.20
53410;DHT22;66590;50.734;4.246;2023-06-10T03:56:40;20.30;90.30
53410;DHT22;66590;50.734;4.246;2023-06-10T03:59:07;20.30;90.30
53410;DHT22;66590;50.734;4.246;2023-06-10T04:01:34;20.30;90.20
53410;DHT22;66590;50.734;4.246;2023-06-10T04:04:01;20.30;90.30
53410;DHT22;66590;50.734;4.246;2023-06-10T04:06:28;20.40;90.50
53410;DHT22;66590;50.734;4.246;2023-06-10T04:08:56;20.30;90.30
53410;DHT22;66590;50.734;4.246;2023-06-10T04:11:24;20.30;90.40
53410;DHT22;66590;50.734;4.246;2023-06-10T04:13:51;20.30;90.30
53410;DHT22;66590;50.734;4.246;2023-06-10T04:16:18;20.30;90.50
53410;DHT22;66590;50.734;4.246;2023-06-10T04:18:46;20.40;90.40
53410;DHT22;66590;50.734;4.246;2023-06-10T04:21:13;20.40;90.50
53410;DHT22;66590;50.734;4.246;2023-06-10T04:23:40;20.40;90.60
53410;DHT22;66590;50.734;4.246;2023-06-10T04:26:08;20.30;91.00
53410;DHT22;66590;50.734;4.246;2023-06-10T04:28:36;20.30;90.60
53410;DHT22;66590;50.734;4.246;2023-06-10T04:31:03;20.30;90.70
53410;DHT22;66590;50.734;4.246;2023-06-10T04:33:30;20.30;90.90
53410;DHT22;66590;50.734;4.246;2023-06-10T04:35:57;20.40;90.90
53410;DHT22;66590;50.734;4.246;2023-06-10T04:38:24;20.30;90.80
53410;DHT22;66590;50.734;4.246;2023-06-10T04:40:51;20.30;90.70
53410;DHT22;66590;50.734;4.246;2023-06-10T04:43:18;20.40;90.80
53410;DHT22;66590;50.734;4.246;2023-06-10T04:45:46;20.40;90.70
53410;DHT22;66590;50.734;4.246;2023-06-10T04:48:13;20.50;90.70
53410;DHT22;66590;50.734;4.246;2023-06-10T04:50:40;20.50;90.80
53410;DHT22;66590;50.734;4.246;2023-06-10T04:53:08;20.50;90.90
53410;DHT22;66590;50.734;4.246;2023-06-10T04:55:35;20.60;90.70
53410;DHT22;66590;50.734;4.246;2023-06-10T04:58:02;20.60;90.80
53410;DHT22;66590;50.734;4.246;2023-06-10T05:00:29;20.60;90.90
53410;DHT22;66590;50.734;4.246;2023-06-10T05:02:57;20.60;91.00
53410;DHT22;66590;50.734;4.246;2023-06-10T05:05:24;20.60;90.90
53410;DHT22;66590;50.734;4.246;2023-06-10T05:07:51;20.70;90.90
53410;DHT22;66590;50.734;4.246;2023-06-10T05:10:18;20.70;90.80
53410;DHT22;66590;50.734;4.246;2023-06-10T05:12:45;20.80;90.90
53410;DHT22;66590;50.734;4.246;2023-06-10T05:15:12;20.80;90.90
53410;DHT22;66590;50.734;4.246;2023-06-10T05:17:40;20.90;90.70
53410;DHT22;66590;50.734;4.246;2023-06-10T05:20:09;21.00;90.70
53410;DHT22;66590;50.734;4.246;2023-06-10T05:22:36;21.00;90.80
53410;DHT22;66590;50.734;4.246;2023-06-10T05:25:04;21.10;90.70
53410;DHT22;66590;50.734;4.246;2023-06-10T05:27:31;21.10;90.70
53410;DHT22;66590;50.734;4.246;2023-06-10T05:29:58;21.20;90.50
53410;DHT22;66590;50.734;4.246;2023-06-10T05:32:25;21.30;90.50
53410;DHT22;66590;50.734;4.246;2023-06-10T05:34:52;21.30;90.40
53410;DHT22;66590;50.734;4.246;2023-06-10T05:37:20;21.30;90.80
53410;DHT22;66590;50.734;4.246;2023-06-10T05:39:47;21.30;90.60
53410;DHT22;66590;50.734;4.246;2023-06-10T05:42:15;21.40;90.50
53410;DHT22;66590;50.734;4.246;2023-06-10T05:44:42;21.50;90.50
53410;DHT22;66590;50.734;4.246;2023-06-10T05:47:09;21.70;90.20
53410;DHT22;66590;50.734;4.246;2023-06-10T05:49:36;21.90;90.30
53410;DHT22;66590;50.734;4.246;2023-06-10T05:52:03;22.10;90.00
53410;DHT22;66590;50.734;4.246;2023-06-10T05:54:31;22.50;88.90
53410;DHT22;66590;50.734;4.246;2023-06-10T05:56:58;23.00;87.60
53410;DHT22;66590;50.734;4.246;2023-06-10T05:59:25;23.90;84.80
53410;DHT22;66590;50.734;4.246;2023-06-10T06:01:52;24.60;82.40
53410;DHT22;66590;50.734;4.246;2023-06-10T06:04:19;25.40;80.00
53410;DHT22;66590;50.734;4.246;2023-06-10T06:06:46;25.70;79.00
53410;DHT22;66590;50.734;4.246;2023-06-10T06:09:13;25.90;78.60
53410;DHT22;66590;50.734;4.246;2023-06-10T06:11:42;26.10;77.50
53410;DHT22;66590;50.734;4.246;2023-06-10T06:14:09;26.60;76.40
53410;DHT22;66590;50.734;4.246;2023-06-10T06:16:36;26.70;75.20
53410;DHT22;66590;50.734;4.246;2023-06-10T06:19:03;26.90;74.80
53410;DHT22;66590;50.734;4.246;2023-06-10T06:21:30;27.30;73.30
53410;DHT22;66590;50.734;4.246;2023-06-10T06:23:58;27.80;71.70
53410;DHT22;66590;50.734;4.246;2023-06-10T06:26:26;28.20;70.40
53410;DHT22;66590;50.734;4.246;2023-06-10T06:28:54;28.50;69.90
53410;DHT22;66590;50.734;4.246;2023-06-10T06:31:21;28.60;68.80
53410;DHT22;66590;50.734;4.246;2023-06-10T06:33:48;28.00;69.80
53410;DHT22;66590;50.734;4.246;2023-06-10T06:36:15;27.60;70.90
53410;DHT22;66590;50.734;4.246;2023-06-10T06:38:42;28.10;70.80
53410;DHT22;66590;50.734;4.246;2023-06-10T06:41:09;28.70;69.50
53410;DHT22;66590;50.734;4.246;2023-06-10T06:43:36;29.30;68.20
53410;DHT22;66590;50.734;4.246;2023-06-10T06:46:05;29.30;68.20
53410;DHT22;66590;50.734;4.246;2023-06-10T06:48:32;29.00;68.00
53410;DHT22;66590;50.734;4.246;2023-06-10T06:51:00;29.20;67.10
53410;DHT22;66590;50.734;4.246;2023-06-10T06:53:27;29.40;67.40
53410;DHT22;66590;50.734;4.246;2023-06-10T06:55:57;29.80;66.30
53410;DHT22;66590;50.734;4.246;2023-06-10T06:58:24;30.30;65.60
53410;DHT22;66590;50.734;4.246;2023-06-10T07:00:51;30.20;64.70
53410;DHT22;66590;50.734;4.246;2023-06-10T07:03:20;30.30;66.10
53410;DHT22;66590;50.734;4.246;2023-06-10T07:05:47;30.60;64.60
53410;DHT22;66590;50.734;4.246;2023-06-10T07:08:14;30.80;64.70
53410;DHT22;66590;50.734;4.246;2023-06-10T07:10:41;30.50;63.60
53410;DHT22;66590;50.734;4.246;2023-06-10T07:13:08;30.60;63.80
53410;DHT22;66590;50.734;4.246;2023-06-10T07:15:35;30.00;62.30
53410;DHT22;66590;50.734;4.246;2023-06-10T07:18:02;29.60;65.60
53410;DHT22;66590;50.734;4.246;2023-06-10T07:20:30;29.30;65.80
53410;DHT22;66590;50.734;4.246;2023-06-10T07:22:57;29.50;65.50
53410;DHT22;66590;50.734;4.246;2023-06-10T07:25:24;29.20;65.00
53410;DHT22;66590;50.734;4.246;2023-06-10T07:27:51;29.30;65.50
53410;DHT22;66590;50.734;4.246;2023-06-10T07:30:18;29.10;64.90
53410;DHT22;66590;50.734;4.246;2023-06-10T07:32:45;29.40;65.30
53410;DHT22;66590;50.734;4.246;2023-06-10T07:35:14;29.50;64.10
53410;DHT22;66590;50.734;4.246;2023-06-10T07:37:42;30.00;66.20
53410;DHT22;66590;50.734;4.246;2023-06-10T07:40:10;30.60;64.70
53410;DHT22;66590;50.734;4.246;2023-06-10T07:42:37;31.10;63.70
53410;DHT22;66590;50.734;4.246;2023-06-10T07:45:05;31.00;63.20
53410;DHT22;66590;50.734;4.246;2023-06-10T07:47:34;30.50;63.70
53410;DHT22;66590;50.734;4.246;2023-06-10T07:50:01;30.60;63.00
53410;DHT22;66590;50.734;4.246;2023-06-10T07:52:28;30.00;64.90
53410;DHT22;66590;50.734;4.246;2023-06-10T07:54:57;30.10;64.00
53410;DHT22;66590;50.734;4.246;2023-06-10T07:57:24;29.90;63.50
53410;DHT22;66590;50.734;4.246;2023-06-10T07:59:51;29.90;64.00
53410;DHT22;66590;50.734;4.246;2023-06-10T08:02:18;29.70;64.20
53410;DHT22;66590;50.734;4.246;2023-06-10T08:04:45;29.70;65.50
53410;DHT22;66590;50.734;4.246;2023-06-10T08:07:12;29.60;64.60
53410;DHT22;66590;50.734;4.246;2023-06-10T08:09:39;30.00;64.70
53410;DHT22;66590;50.734;4.246;2023-06-10T08:12:08;30.30;64.00
53410;DHT22;66590;50.734;4.246;2023-06-10T08:14:35;30.50;63.90
53410;DHT22;66590;50.734;4.246;2023-06-10T08:17:02;30.60;63.70
53410;DHT22;66590;50.734;4.246;2023-06-10T08:19:29;30.40;62.30
53410;DHT22;66590;50.734;4.246;2023-06-10T08:21:56;30.20;65.40
53410;DHT22;66590;50.734;4.246;2023-06-10T08:24:23;30.10;63.40
53410;DHT22;66590;50.734;4.246;2023-06-10T08:26:50;30.10;64.30
53410;DHT22;66590;50.734;4.246;2023-06-10T08:29:19;30.40;64.10
53410;DHT22;66590;50.734;4.246;2023-06-10T08:31:46;30.50;62.80
53410;DHT22;66590;50.734;4.246;2023-06-10T08:34:13;30.50;64.20
53410;DHT22;66590;50.734;4.246;2023-06-10T08:36:40;30.60;63.50
53410;DHT22;66590;50.734;4.246;2023-06-10T08:39:07;30.70;63.20
53410;DHT22;66590;50.734;4.246;2023-06-10T08:41:37;30.70;62.80
53410;DHT22;66590;50.734;4.246;2023-06-10T08:44:10;30.50;62.90
53410;DHT22;66590;50.734;4.246;2023-06-10T08:46:43;30.60;63.40
53410;DHT22;66590;50.734;4.246;2023-06-10T08:49:16;31.00;63.70
53410;DHT22;66590;50.734;4.246;2023-06-10T08:51:45;31.40;62.80
53410;DHT22;66590;50.734;4.246;2023-06-10T08:54:17;31.90;62.30
53410;DHT22;66590;50.734;4.246;2023-06-10T08:56:46;32.00;61.30
53410;DHT22;66590;50.734;4.246;2023-06-10T08:59:14;31.90;61.30
53410;DHT22;66590;50.734;4.246;2023-06-10T09:01:44;31.70;59.80
53410;DHT22;66590;50.734;4.246;2023-06-10T09:04:11;31.20;60.10
53410;DHT22;66590;50.734;4.246;2023-06-10T09:06:40;31.20;62.10
53410;DHT22;66590;50.734;4.246;2023-06-10T09:09:07;31.50;61.40
53410;DHT22;66590;50.734;4.246;2023-06-10T09:11:34;31.60;60.90
53410;DHT22;66590;50.734;4.246;2023-06-10T09:14:01;32.00;60.00
53410;DHT22;66590;50.734;4.246;2023-06-10T09:16:28;32.00;60.70
53410;DHT22;66590;50.734;4.246;2023-06-10T09:18:57;32.30;61.20
53410;DHT22;66590;50.734;4.246;2023-06-10T09:21:24;32.10;60.30
53410;DHT22;66590;50.734;4.246;2023-06-10T09:23:52;32.50;59.80
53410;DHT22;66590;50.734;4.246;2023-06-10T09:26:19;32.70;59.20
53410;DHT22;66590;50.734;4.246;2023-06-10T09:28:48;32.70;59.00
53410;DHT22;66590;50.734;4.246;2023-06-10T09:31:16;32.70;57.70
53410;DHT22;66590;50.734;4.246;2023-06-10T09:33:44;32.30;58.70
53410;DHT22;66590;50.734;4.246;2023-06-10T09:36:21;32.40;58.30
53410;DHT22;66590;50.734;4.246;2023-06-10T09:38:49;32.00;58.80
53410;DHT22;66590;50.734;4.246;2023-06-10T09:41:17;32.00;58.60
53410;DHT22;66590;50.734;4.246;2023-06-10T09:43:45;31.70;59.20
53410;DHT22;66590;50.734;4.246;2023-06-10T09:46:16;31.90;59.30
53410;DHT22;66590;50.734;4.246;2023-06-10T09:48:44;32.30;58.30
53410;DHT22;66590;50.734;4.246;2023-06-10T09:51:14;32.10;57.50
53410;DHT22;66590;50.734;4.246;2023-06-10T09:53:41;32.30;57.50
53410;DHT22;66590;50.734;4.246;2023-06-10T09:56:15;32.80;58.10
53410;DHT22;66590;50.734;4.246;2023-06-10T09:58:42;32.80;58.30
53410;DHT22;66590;50.734;4.246;2023-06-10T10:01:16;32.90;58.50
53410;DHT22;66590;50.734;4.246;2023-06-10T10:03:44;33.10;57.60
53410;DHT22;66590;50.734;4.246;2023-06-10T10:06:20;33.10;56.80
53410;DHT22;66590;50.734;4.246;2023-06-10T10:08:49;33.00;56.00
53410;DHT22;66590;50.734;4.246;2023-06-10T10:11:23;32.80;55.20
53410;DHT22;66590;50.734;4.246;2023-06-10T10:13:51;32.90;55.70
53410;DHT22;66590;50.734;4.246;2023-06-10T10:16:31;32.70;55.90
53410;DHT22;66590;50.734;4.246;2023-06-10T10:19:06;32.90;57.30
53410;DHT22;66590;50.734;4.246;2023-06-10T10:21:44;33.30;55.40
53410;DHT22;66590;50.734;4.246;2023-06-10T10:24:17;33.60;55.10
53410;DHT22;66590;50.734;4.246;2023-06-10T10:26:52;33.70;55.90
53410;DHT22;66590;50.734;4.246;2023-06-10T10:29:24;33.60;54.30
53410;DHT22;66590;50.734;4.246;2023-06-10T10:32:00;33.60;53.00
53410;DHT22;66590;50.734;4.246;2023-06-10T10:34:35;33.50;53.10
53410;DHT22;66590;50.734;4.246;2023-06-10T10:37:11;33.40;53.30
53410;DHT22;66590;50.734;4.246;2023-06-10T10:39:39;33.60;53.50
53410;DHT22;66590;50.734;4.246;2023-06-10T10:42:13;33.90;52.40
53410;DHT22;66590;50.734;4.246;2023-06-10T10:44:41;33.90;53.30
53410;DHT22;66590;50.734;4.246;2023-06-10T10:47:16;33.90;51.40
53410;DHT22;66590;50.734;4.246;2023-06-10T10:49:45;33.50;51.10
53410;DHT22;66590;50.734;4.246;2023-06-10T10:52:23;32.80;50.80
53410;DHT22;66590;50.734;4.246;2023-06-10T10:54:53;32.80;52.10
53410;DHT22;66590;50.734;4.246;2023-06-10T10:57:29;32.60;50.80
53410;DHT22;66590;50.734;4.246;2023-06-10T10:59:57;32.60;51.60
53410;DHT22;66590;50.734;4.246;2023-06-10T11:02:37;32.50;50.70
53410;DHT22;66590;50.734;4.246;2023-06-10T11:05:05;32.80;51.40
53410;DHT22;66590;50.734;4.246;2023-06-10T11:07:52;32.90;52.20
53410;DHT22;66590;50.734;4.246;2023-06-10T11:10:28;33.20;52.30
53410;DHT22;66590;50.734;4.246;2023-06-10T11:13:07;32.90;51.40
53410;DHT22;66590;50.734;4.246;2023-06-10T11:15:38;32.90;52.10
53410;DHT22;66590;50.734;4.246;2023-06-10T11:18:22;33.20;52.30
53410;DHT22;66590;50.734;4.246;2023-06-10T11:20:58;33.70;51.10
53410;DHT22;66590;50.734;4.246;2023-06-10T11:23:41;34.00;50.70
53410;DHT22;66590;50.734;4.246;2023-06-10T11:26:19;34.00;48.50
53410;DHT22;66590;50.734;4.246;2023-06-10T11:29:07;33.50;48.70
53410;DHT22;66590;50.734;4.246;2023-06-10T11:31:39;33.30;49.60
53410;DHT22;66590;50.734;4.246;2023-06-10T11:34:13;33.50;49.00
53410;DHT22;66590;50.734;4.246;2023-06-10T11:36:42;33.60;49.70
53410;DHT22;66590;50.734;4.246;2023-06-10T11:39:26;33.70;48.30
53410;DHT22;66590;50.734;4.246;2023-06-10T11:41:54;33.50;49.90
53410;DHT22;66590;50.734;4.246;2023-06-10T11:44:27;33.50;49.20
53410;DHT22;66590;50.734;4.246;2023-06-10T11:46:56;33.20;48.80
53410;DHT22;66590;50.734;4.246;2023-06-10T11:49:23;33.10;49.70
53410;DHT22;66590;50.734;4.246;2023-06-10T11:51:57;32.60;50.00
53410;DHT22;66590;50.734;4.246;2023-06-10T11:54:25;32.10;50.60
53410;DHT22;66590;50.734;4.246;2023-06-10T11:56:59;32.20;50.00
53410;DHT22;66590;50.734;4.246;2023-06-10T11:59:27;32.40;51.40
53410;DHT22;66590;50.734;4.246;2023-06-10T12:02:01;32.60;51.70
53410;DHT22;66590;50.734;4.246;2023-06-10T12:04:28;33.00;49.60
53410;DHT22;66590;50.734;4.246;2023-06-10T12:06:55;32.60;49.10
53410;DHT22;66590;50.734;4.246;2023-06-10T12:09:30;32.10;51.80
53410;DHT22;66590;50.734;4.246;2023-06-10T12:11:58;32.60;50.90
53410;DHT22;66590;50.734;4.246;2023-06-10T12:14:51;33.10;50.90
53410;DHT22;66590;50.734;4.246;2023-06-10T12:17:18;33.50;49.90
53410;DHT22;66590;50.734;4.246;2023-06-10T12:19:52;33.70;49.50
53410;DHT22;66590;50.734;4.246;2023-06-10T12:22:19;33.40;49.70
53410;DHT22;66590;50.734;4.246;2023-06-10T12:25:01;33.20;51.30
53410;DHT22;66590;50.734;4.246;2023-06-10T12:27:29;33.50;51.20
53410;DHT22;66590;50.734;4.246;2023-06-10T12:30:04;33.40;50.20
53410;DHT22;66590;50.734;4.246;2023-06-10T12:32:35;33.20;50.70
53410;DHT22;66590;50.734;4.246;2023-06-10T12:35:10;32.80;50.10
53410;DHT22;66590;50.734;4.246;2023-06-10T12:37:38;32.20;51.60
53410;DHT22;66590;50.734;4.246;2023-06-10T12:40:13;32.20;52.60
53410;DHT22;66590;50.734;4.246;2023-06-10T12:42:40;32.20;52.60
53410;DHT22;66590;50.734;4.246;2023-06-10T12:45:26;32.20;51.60
53410;DHT22;66590;50.734;4.246;2023-06-10T12:48:04;32.60;52.20
53410;DHT22;66590;50.734;4.246;2023-06-10T12:50:39;33.00;52.10
53410;DHT22;66590;50.734;4.246;2023-06-10T12:53:06;33.20;51.60
53410;DHT22;66590;50.734;4.246;2023-06-10T12:55:41;33.30;51.40
53410;DHT22;66590;50.734;4.246;2023-06-10T12:58:08;33.50;52.10
53410;DHT22;66590;50.734;4.246;2023-06-10T13:00:42;33.90;51.10
53410;DHT22;66590;50.734;4.246;2023-06-10T13:03:10;33.90;51.40
53410;DHT22;66590;50.734;4.246;2023-06-10T13:05:44;34.00;50.80
53410;DHT22;66590;50.734;4.246;2023-06-10T13:08:11;33.90;50.10
53410;DHT22;66590;50.734;4.246;2023-06-10T13:10:38;34.00;51.00
53410;DHT22;66590;50.734;4.246;2023-06-10T13:13:13;34.10;51.00
53410;DHT22;66590;50.734;4.246;2023-06-10T13:15:41;34.20;51.10
53410;DHT22;66590;50.734;4.246;2023-06-10T13:18:15;34.10;51.00
53410;DHT22;66590;50.734;4.246;2023-06-10T13:20:42;34.00;50.60
53410;DHT22;66590;50.734;4.246;2023-06-10T13:23:09;34.00;50.50
53410;DHT22;66590;50.734;4.246;2023-06-10T13:25:43;34.10;50.70
53410;DHT22;66590;50.734;4.246;2023-06-10T13:28:10;34.00;50.80
53410;DHT22;66590;50.734;4.246;2023-06-10T13:30:45;34.40;50.20
53410;DHT22;66590;50.734;4.246;2023-06-10T13:33:12;34.00;50.20
53410;DHT22;66590;50.734;4.246;2023-06-10T13:35:46;34.00;50.40
53410;DHT22;66590;50.734;4.246;2023-06-10T13:38:13;33.80;50.30
53410;DHT22;66590;50.734;4.246;2023-06-10T13:40:40;33.60;50.70
53410;DHT22;66590;50.734;4.246;2023-06-10T13:43:13;33.40;50.60
53410;DHT22;66590;50.734;4.246;2023-06-10T13:45:40;33.50;50.40
53410;DHT22;66590;50.734;4.246;2023-06-10T13:48:08;33.30;49.20
53410;DHT22;66590;50.734;4.246;2023-06-10T13:50:42;33.50;48.40
53410;DHT22;66590;50.734;4.246;2023-06-10T13:53:09;34.00;48.20
53410;DHT22;66590;50.734;4.246;2023-06-10T13:55:36;34.40;48.80
53410;DHT22;66590;50.734;4.246;2023-06-10T13:58:09;34.30;49.40
53410;DHT22;66590;50.734;4.246;2023-06-10T14:00:36;34.20;50.00
53410;DHT22;66590;50.734;4.246;2023-06-10T14:03:03;33.70;49.80
53410;DHT22;66590;50.734;4.246;2023-06-10T14:05:38;33.00;50.30
53410;DHT22;66590;50.734;4.246;2023-06-10T14:08:05;32.70;50.00
53410;DHT22;66590;50.734;4.246;2023-06-10T14:10:39;32.30;50.90
53410;DHT22;66590;50.734;4.246;2023-06-10T14:13:06;32.70;52.20
53410;DHT22;66590;50.734;4.246;2023-06-10T14:15:33;32.90;50.10
53410;DHT22;66590;50.734;4.246;2023-06-10T14:18:07;32.40;49.50
53410;DHT22;66590;50.734;4.246;2023-06-10T14:20:34;32.20;50.10
53410;DHT22;66590;50.734;4.246;2023-06-10T14:23:09;31.90;50.30
53410;DHT22;66590;50.734;4.246;2023-06-10T14:25:36;31.90;51.30
53410;DHT22;66590;50.734;4.246;2023-06-10T14:28:10;31.90;51.10
53410;DHT22;66590;50.734;4.246;2023-06-10T14:30:37;31.90;51.20
53410;DHT22;66590;50.734;4.246;2023-06-10T14:33:11;31.90;51.10
53410;DHT22;66590;50.734;4.246;2023-06-10T14:35:38;31.80;51.40
53410;DHT22;66590;50.734;4.246;2023-06-10T14:38:05;31.60;50.70
53410;DHT22;66590;50.734;4.246;2023-06-10T14:40:40;31.40;50.50
53410;DHT22;66590;50.734;4.246;2023-06-10T14:43:07;31.50;50.80
53410;DHT22;66590;50.734;4.246;2023-06-10T14:45:41;31.90;51.10
53410;DHT22;66590;50.734;4.246;2023-06-10T14:48:08;32.30;50.50
53410;DHT22;66590;50.734;4.246;2023-06-10T14:50:42;32.70;49.50
53410;DHT22;66590;50.734;4.246;2023-06-10T14:53:09;32.50;48.80
53410;DHT22;66590;50.734;4.246;2023-06-10T14:55:44;32.50;48.80
53410;DHT22;66590;50.734;4.246;2023-06-10T14:58:11;32.50;48.40
53410;DHT22;66590;50.734;4.246;2023-06-10T15:00:38;32.60;48.50
53410;DHT22;66590;50.734;4.246;2023-06-10T15:03:12;32.90;48.30
53410;DHT22;66590;50.734;4.246;2023-06-10T15:05:39;32.70;48.20
53410;DHT22;66590;50.734;4.246;2023-06-10T15:08:13;32.50;49.90
53410;DHT22;66590;50.734;4.246;2023-06-10T15:10:40;32.80;49.50
53410;DHT22;66590;50.734;4.246;2023-06-10T15:13:15;32.80;48.60
53410;DHT22;66590;50.734;4.246;2023-06-10T15:15:42;32.80;48.50
53410;DHT22;66590;50.734;4.246;2023-06-10T15:18:16;32.90;48.80
53410;DHT22;66590;50.734;4.246;2023-06-10T15:20:43;32.60;48.70
53410;DHT22;66590;50.734;4.246;2023-06-10T15:23:17;32.70;48.70
53410;DHT22;66590;50.734;4.246;2023-06-10T15:25:44;32.80;48.40
53410;DHT22;66590;50.734;4.246;2023-06-10T15:28:11;32.60;48.80
53410;DHT22;66590;50.734;4.246;2023-06-10T15:30:45;32.70;49.00
53410;DHT22;66590;50.734;4.246;2023-06-10T15:33:12;32.60;47.90
53410;DHT22;66590;50.734;4.246;2023-06-10T15:35:46;32.20;49.70
53410;DHT22;66590;50.734;4.246;2023-06-10T15:38:13;32.40;49.20
53410;DHT22;66590;50.734;4.246;2023-06-10T15:40:47;32.60;48.50